METAR Data
IDs: Format: Raw Decoded Include TAF

Data at: 2236 UTC 25 Apr 2019

EBBR 252220Z 20005KT CAVOK 09/07 Q1008 NOSIG